Time;durP1;ratioP1;P1;durP2;ratioP2;P2;SDS_P1;SDS_P2;PMS_P1;PMS_P2;Temp;Humidity;BMP_temperature;BMP_pressure;BME280_temperature;BME280_humidity;BME280_pressure;Samples;Min_cycle;Max_cycle;Signal;HPM_P1;HPM_P2
2021/06/08 00:00:12;;;;;;;7.95;7.10;;;;;;;;;;1478007;40;20469;-83
2021/06/08 00:01:14;;;;;;;8.80;7.50;;;;;;;;;;1475963;40;20421;-83
2021/06/08 00:02:16;;;;;;;9.07;7.18;;;;;;;;;;1480388;40;20408;-82
2021/06/08 00:03:18;;;;;;;8.85;8.00;;;;;;;;;;1482246;40;20452;-82
2021/06/08 00:04:19;;;;;;;9.05;8.15;;;;;;;;;;1477929;40;20418;-82
2021/06/08 00:05:21;;;;;;;9.65;8.75;;;;;;;;;;1480025;40;20813;-83
2021/06/08 00:06:23;;;;;;;8.65;7.85;;;;;;;;;;1480908;40;20412;-83
2021/06/08 00:07:24;;;;;;;8.52;7.70;;;;;;;;;;1481846;40;20415;-82
2021/06/08 00:08:26;;;;;;;9.23;8.43;;;;;;;;;;1482006;40;20477;-83
2021/06/08 00:09:28;;;;;;;9.35;8.45;;;;;;;;;;1485256;40;20442;-82
2021/06/08 00:10:29;;;;;;;12.00;8.68;;;;;;;;;;1482140;40;20496;-83
2021/06/08 00:11:31;;;;;;;10.02;9.13;;;;;;;;;;1476622;40;20826;-82
2021/06/08 00:12:32;;;;;;;10.27;9.27;;;;;;;;;;1481831;40;20424;-83
2021/06/08 00:13:34;;;;;;;9.80;8.40;;;;;;;;;;1481185;40;20404;-82
2021/06/08 00:14:36;;;;;;;8.23;7.53;;;;;;;;;;1481636;40;20408;-82
2021/06/08 00:15:37;;;;;;;9.75;8.75;;;;;;;;;;1482225;40;20443;-82
2021/06/08 00:16:39;;;;;;;9.40;8.50;;;;;;;;;;1481387;40;20436;-83
2021/06/08 00:17:41;;;;;;;9.23;8.27;;;;;;;;;;1477511;40;20418;-82
2021/06/08 00:18:43;;;;;;;9.02;8.20;;;;;;;;;;1477500;40;20699;-83
2021/06/08 00:19:45;;;;;;;10.15;8.88;;;;;;;;;;1481262;40;20412;-82
2021/06/08 00:20:46;;;;;;;9.50;8.60;;;;;;;;;;1481186;40;20859;-82
2021/06/08 00:21:48;;;;;;;10.07;9.07;;;;;;;;;;1477209;40;20438;-82
2021/06/08 00:22:49;;;;;;;9.75;8.85;;;;;;;;;;1473665;40;20474;-83
2021/06/08 00:23:51;;;;;;;10.77;9.13;;;;;;;;;;1477449;40;20588;-83
2021/06/08 00:24:53;;;;;;;9.82;8.93;;;;;;;;;;1481128;40;20481;-82
2021/06/08 00:25:55;;;;;;;10.90;9.75;;;;;;;;;;1481055;40;20407;-82
2021/06/08 00:26:56;;;;;;;10.32;9.32;;;;;;;;;;1482407;40;20452;-83
2021/06/08 00:28:01;;;;;;;9.98;8.98;;;;;;;;;;1481558;40;20420;-82
2021/06/08 00:29:02;;;;;;;10.25;9.18;;;;;;;;;;1481752;40;20413;-82
2021/06/08 00:30:05;;;;;;;10.23;9.27;;;;;;;;;;1482272;40;20397;-83
2021/06/08 00:31:06;;;;;;;10.00;9.00;;;;;;;;;;1482012;40;20768;-83
2021/06/08 00:32:08;;;;;;;10.73;9.63;;;;;;;;;;1481659;40;20658;-83
2021/06/08 00:33:12;;;;;;;12.25;9.43;;;;;;;;;;1482023;40;20792;-83
2021/06/08 00:34:14;;;;;;;10.05;9.05;;;;;;;;;;1482056;40;20773;-82
2021/06/08 00:35:15;;;;;;;10.77;9.80;;;;;;;;;;1480620;40;20448;-82
2021/06/08 00:36:17;;;;;;;11.07;9.98;;;;;;;;;;1481821;40;20516;-83
2021/06/08 00:37:19;;;;;;;13.55;10.18;;;;;;;;;;1482163;40;20816;-83
2021/06/08 00:38:20;;;;;;;10.63;9.63;;;;;;;;;;1477580;40;20529;-82
2021/06/08 00:39:22;;;;;;;11.02;9.93;;;;;;;;;;1477505;40;20926;-82
2021/06/08 00:40:26;;;;;;;10.98;9.68;;;;;;;;;;1482173;40;20460;-84
2021/06/08 00:41:40;;;;;;;12.60;9.75;;;;;;;;;;1481661;40;20405;-82
2021/06/08 00:42:44;;;;;;;11.32;10.20;;;;;;;;;;1482325;40;20443;-82
2021/06/08 00:43:46;;;;;;;11.55;10.45;;;;;;;;;;1480690;40;20784;-83
2021/06/08 00:44:47;;;;;;;11.50;10.30;;;;;;;;;;1481839;40;20450;-83
2021/06/08 00:45:52;;;;;;;10.98;9.90;;;;;;;;;;1484275;40;20443;-83
2021/06/08 00:46:53;;;;;;;10.30;9.27;;;;;;;;;;1486622;40;20525;-83
2021/06/08 00:47:58;;;;;;;10.93;9.82;;;;;;;;;;1486564;40;20422;-84
2021/06/08 00:49:00;;;;;;;12.40;10.40;;;;;;;;;;1486204;40;20462;-83
2021/06/08 00:50:03;;;;;;;10.95;9.77;;;;;;;;;;1485713;40;20740;-83
2021/06/08 00:51:04;;;;;;;12.50;10.90;;;;;;;;;;1485880;40;20442;-84
2021/06/08 00:52:06;;;;;;;12.63;10.35;;;;;;;;;;1480658;40;20981;-83
2021/06/08 00:53:08;;;;;;;11.70;10.55;;;;;;;;;;1481666;40;20400;-83
2021/06/08 00:54:10;;;;;;;10.98;9.98;;;;;;;;;;1481786;40;20511;-82
2021/06/08 00:55:13;;;;;;;12.07;10.88;;;;;;;;;;1477644;40;20487;-83
2021/06/08 00:56:15;;;;;;;12.13;10.70;;;;;;;;;;1482964;40;20416;-83
2021/06/08 00:57:17;;;;;;;12.20;11.00;;;;;;;;;;1480201;40;20477;-83
2021/06/08 00:58:19;;;;;;;13.43;11.73;;;;;;;;;;1484200;40;20529;-83
2021/06/08 00:59:21;;;;;;;12.32;11.02;;;;;;;;;;1485873;40;20412;-83
2021/06/08 01:00:23;;;;;;;12.23;10.88;;;;;;;;;;1481526;40;20651;-83
2021/06/08 01:01:24;;;;;;;12.32;10.95;;;;;;;;;;1485925;40;20402;-82
2021/06/08 01:02:26;;;;;;;12.27;11.00;;;;;;;;;;1486237;39;20411;-83
2021/06/08 01:03:28;;;;;;;12.43;11.23;;;;;;;;;;1486300;40;20799;-83
2021/06/08 01:04:30;;;;;;;12.80;11.30;;;;;;;;;;1486465;40;20415;-82
2021/06/08 01:05:31;;;;;;;13.10;11.38;;;;;;;;;;1486566;39;20430;-83
2021/06/08 01:06:35;;;;;;;14.63;11.65;;;;;;;;;;1486274;39;20407;-83
2021/06/08 01:07:37;;;;;;;12.70;11.50;;;;;;;;;;1486257;39;20410;-83
2021/06/08 01:08:39;;;;;;;13.77;12.32;;;;;;;;;;1486163;40;20489;-83
2021/06/08 01:09:40;;;;;;;13.70;12.30;;;;;;;;;;1476269;40;20485;-84
2021/06/08 01:10:42;;;;;;;13.07;11.68;;;;;;;;;;1481120;40;20483;-83
2021/06/08 01:11:44;;;;;;;13.10;11.70;;;;;;;;;;1477398;40;20418;-84
2021/06/08 01:12:45;;;;;;;13.63;12.27;;;;;;;;;;1477085;40;20466;-83
2021/06/08 01:13:47;;;;;;;13.43;12.13;;;;;;;;;;1486345;39;20513;-83
2021/06/08 01:14:50;;;;;;;13.60;12.30;;;;;;;;;;1480888;40;20515;-83
2021/06/08 01:15:51;;;;;;;13.30;12.07;;;;;;;;;;1481634;40;20775;-83
2021/06/08 01:16:53;;;;;;;17.17;12.95;;;;;;;;;;1485296;40;20392;-83
2021/06/08 01:17:55;;;;;;;14.50;12.82;;;;;;;;;;1486537;40;20454;-83
2021/06/08 01:18:57;;;;;;;15.50;13.82;;;;;;;;;;1486389;40;20410;-83
2021/06/08 01:20:00;;;;;;;14.52;13.05;;;;;;;;;;1483790;40;20949;-83
2021/06/08 01:21:04;;;;;;;12.98;11.70;;;;;;;;;;1477531;40;21085;-82
2021/06/08 01:22:07;;;;;;;14.88;13.27;;;;;;;;;;1481396;40;20416;-84
2021/06/08 01:23:08;;;;;;;13.95;12.55;;;;;;;;;;1485661;40;20395;-83
2021/06/08 01:24:10;;;;;;;14.20;12.77;;;;;;;;;;1485564;40;20520;-82
2021/06/08 01:25:12;;;;;;;14.80;12.68;;;;;;;;;;1481020;40;20527;-83
2021/06/08 01:26:14;;;;;;;14.30;12.88;;;;;;;;;;1481911;40;20527;-82
2021/06/08 01:27:18;;;;;;;15.32;13.70;;;;;;;;;;1485416;40;20468;-83
2021/06/08 01:28:20;;;;;;;15.30;12.45;;;;;;;;;;1483558;40;20416;-82
2021/06/08 01:29:23;;;;;;;16.02;13.45;;;;;;;;;;1479778;40;20393;-83
2021/06/08 01:30:26;;;;;;;15.57;13.70;;;;;;;;;;1481544;40;20404;-83
2021/06/08 01:31:30;;;;;;;14.20;12.70;;;;;;;;;;1486495;40;20512;-83
2021/06/08 01:32:34;;;;;;;14.65;13.25;;;;;;;;;;1487224;40;20434;-83
2021/06/08 01:33:43;;;;;;;14.57;13.18;;;;;;;;;;1483227;40;21077;-84
2021/06/08 01:34:46;;;;;;;15.20;13.60;;;;;;;;;;1483568;40;20425;-83
2021/06/08 01:35:49;;;;;;;15.15;13.52;;;;;;;;;;1481660;40;20723;-83
2021/06/08 01:36:51;;;;;;;15.40;13.82;;;;;;;;;;1479211;40;20449;-83
2021/06/08 01:37:53;;;;;;;15.52;13.90;;;;;;;;;;1484305;40;20802;-83
2021/06/08 01:38:55;;;;;;;15.38;13.85;;;;;;;;;;1487370;40;20446;-84
2021/06/08 01:39:57;;;;;;;14.93;13.43;;;;;;;;;;1482696;40;20419;-83
2021/06/08 01:40:59;;;;;;;15.10;13.50;;;;;;;;;;1485089;40;20466;-84
2021/06/08 01:42:03;;;;;;;16.10;14.20;;;;;;;;;;1477791;40;20523;-83
2021/06/08 01:43:05;;;;;;;15.00;13.43;;;;;;;;;;1478898;40;20463;-83
2021/06/08 01:44:06;;;;;;;15.82;14.23;;;;;;;;;;1486067;40;20765;-83
2021/06/08 01:45:08;;;;;;;15.43;13.82;;;;;;;;;;1486269;39;20516;-83
2021/06/08 01:46:10;;;;;;;16.48;13.95;;;;;;;;;;1485986;40;20417;-83
2021/06/08 01:47:13;;;;;;;16.13;14.23;;;;;;;;;;1485917;40;20471;-83
2021/06/08 01:48:15;;;;;;;15.02;13.55;;;;;;;;;;1486658;39;20433;-82
2021/06/08 01:49:16;;;;;;;16.02;14.30;;;;;;;;;;1485661;40;20415;-83
2021/06/08 01:50:18;;;;;;;15.63;14.13;;;;;;;;;;1481458;40;20415;-83
2021/06/08 01:51:50;;;;;;;17.08;14.40;;;;;;;;;;1476818;40;20464;-84
2021/06/08 01:53:13;;;;;;;15.63;14.02;;;;;;;;;;1481933;40;20458;-82
2021/06/08 01:54:24;;;;;;;16.00;14.40;;;;;;;;;;1487595;39;20509;-83
2021/06/08 01:55:36;;;;;;;16.88;14.27;;;;;;;;;;1490200;39;20412;-83
2021/06/08 01:56:42;;;;;;;17.10;15.30;;;;;;;;;;1489264;40;20469;-83
2021/06/08 01:58:01;;;;;;;16.45;14.68;;;;;;;;;;1490720;40;20431;-83
2021/06/08 01:59:03;;;;;;;16.92;14.52;;;;;;;;;;1491066;40;20387;-83
2021/06/08 02:00:13;;;;;;;16.38;14.80;;;;;;;;;;1492172;39;20472;-82
2021/06/08 02:01:26;;;;;;;16.27;14.60;;;;;;;;;;1492108;39;20390;-83
2021/06/08 02:02:31;;;;;;;16.90;15.30;;;;;;;;;;1487784;40;20535;-83
2021/06/08 02:03:37;;;;;;;16.00;14.48;;;;;;;;;;1485952;40;20416;-84
2021/06/08 02:04:44;;;;;;;16.27;14.55;;;;;;;;;;1490402;40;20407;-83
2021/06/08 02:06:04;;;;;;;16.48;14.98;;;;;;;;;;1480954;40;20414;-83
2021/06/08 02:07:27;;;;;;;16.63;14.90;;;;;;;;;;1479884;40;20852;-83
2021/06/08 02:08:39;;;;;;;15.38;13.88;;;;;;;;;;1486890;40;20433;-83
2021/06/08 02:09:51;;;;;;;16.80;15.15;;;;;;;;;;1485969;39;20533;-82
2021/06/08 02:11:13;;;;;;;16.73;14.90;;;;;;;;;;1482941;40;20463;-83
2021/06/08 02:12:19;;;;;;;18.65;15.90;;;;;;;;;;1480079;40;20500;-83
2021/06/08 02:13:40;;;;;;;17.10;15.30;;;;;;;;;;1480952;40;20417;-83
2021/06/08 02:15:03;;;;;;;17.25;15.45;;;;;;;;;;1486409;40;20425;-83
2021/06/08 02:16:16;;;;;;;17.15;15.32;;;;;;;;;;1481982;40;20536;-83
2021/06/08 02:17:25;;;;;;;17.60;15.80;;;;;;;;;;1485164;39;20483;-83
2021/06/08 02:18:29;;;;;;;17.55;15.82;;;;;;;;;;1485799;40;20422;-84
2021/06/08 02:19:32;;;;;;;17.17;15.52;;;;;;;;;;1485078;40;20478;-83
2021/06/08 02:20:35;;;;;;;17.30;15.50;;;;;;;;;;1485940;39;20446;-83
2021/06/08 02:21:44;;;;;;;16.98;15.25;;;;;;;;;;1485250;40;20463;-83
2021/06/08 02:22:51;;;;;;;17.23;15.43;;;;;;;;;;1480899;40;20513;-83
2021/06/08 02:23:54;;;;;;;17.60;15.82;;;;;;;;;;1486158;39;20407;-84
2021/06/08 02:24:58;;;;;;;17.05;15.25;;;;;;;;;;1485468;39;20850;-84
2021/06/08 02:26:01;;;;;;;17.75;15.95;;;;;;;;;;1484931;40;20423;-84
2021/06/08 02:27:09;;;;;;;18.83;16.65;;;;;;;;;;1479716;40;20507;-84
2021/06/08 02:28:14;;;;;;;18.73;16.73;;;;;;;;;;1479596;40;20446;-84
2021/06/08 02:29:18;;;;;;;17.83;15.93;;;;;;;;;;1480571;40;20425;-83
2021/06/08 02:30:21;;;;;;;18.90;16.65;;;;;;;;;;1481748;40;20393;-84
2021/06/08 02:31:24;;;;;;;18.17;16.27;;;;;;;;;;1485604;40;20787;-84
2021/06/08 02:32:29;;;;;;;17.85;16.15;;;;;;;;;;1481117;40;20444;-83
2021/06/08 02:33:32;;;;;;;19.15;16.90;;;;;;;;;;1481499;40;20841;-83
2021/06/08 02:34:35;;;;;;;18.07;16.27;;;;;;;;;;1486059;40;20835;-84
2021/06/08 02:35:38;;;;;;;19.65;16.58;;;;;;;;;;1483481;40;20422;-84
2021/06/08 02:36:42;;;;;;;17.95;15.75;;;;;;;;;;1481712;40;20542;-84
2021/06/08 02:37:44;;;;;;;18.65;16.73;;;;;;;;;;1481478;40;20420;-84
2021/06/08 02:38:48;;;;;;;18.65;16.75;;;;;;;;;;1481717;40;20405;-85
2021/06/08 02:39:50;;;;;;;19.85;17.35;;;;;;;;;;1485601;40;20405;-84
2021/06/08 02:40:53;;;;;;;18.42;16.42;;;;;;;;;;1481132;40;20405;-84
2021/06/08 02:41:56;;;;;;;18.05;16.15;;;;;;;;;;1478100;40;20863;-85
2021/06/08 02:43:00;;;;;;;20.48;17.45;;;;;;;;;;1484138;40;20438;-84
2021/06/08 02:44:02;;;;;;;18.65;16.65;;;;;;;;;;1483711;40;20470;-85
2021/06/08 02:45:04;;;;;;;18.52;16.60;;;;;;;;;;1485261;40;20516;-84
2021/06/08 02:46:08;;;;;;;18.40;16.52;;;;;;;;;;1483235;40;20784;-85
2021/06/08 02:47:11;;;;;;;17.98;16.10;;;;;;;;;;1487481;39;20780;-84
2021/06/08 02:48:15;;;;;;;19.03;17.10;;;;;;;;;;1485520;40;20501;-86
2021/06/08 02:49:19;;;;;;;21.55;17.40;;;;;;;;;;1486228;40;20831;-84
2021/06/08 02:50:23;;;;;;;20.00;17.63;;;;;;;;;;1485428;40;20473;-84
2021/06/08 02:51:26;;;;;;;18.80;16.80;;;;;;;;;;1485865;39;20459;-83
2021/06/08 02:52:29;;;;;;;20.45;17.45;;;;;;;;;;1487902;39;20405;-84
2021/06/08 02:53:33;;;;;;;18.77;16.85;;;;;;;;;;1484630;40;20869;-83
2021/06/08 02:54:36;;;;;;;19.55;17.50;;;;;;;;;;1485342;40;20525;-83
2021/06/08 02:55:38;;;;;;;18.05;16.15;;;;;;;;;;1485869;39;20435;-84
2021/06/08 02:56:41;;;;;;;18.48;16.58;;;;;;;;;;1482190;40;20882;-83
2021/06/08 02:57:44;;;;;;;19.30;17.20;;;;;;;;;;1477091;40;20418;-83
2021/06/08 02:58:47;;;;;;;18.77;16.70;;;;;;;;;;1472603;40;20396;-83
2021/06/08 02:59:50;;;;;;;18.98;17.08;;;;;;;;;;1481793;40;20789;-83
2021/06/08 03:00:52;;;;;;;20.63;17.35;;;;;;;;;;1486211;39;20454;-84
2021/06/08 03:01:57;;;;;;;19.52;17.42;;;;;;;;;;1482438;40;20418;-83
2021/06/08 03:03:02;;;;;;;18.85;16.90;;;;;;;;;;1483237;40;20429;-83
2021/06/08 03:04:05;;;;;;;19.40;17.45;;;;;;;;;;1486552;39;20849;-84
2021/06/08 03:05:37;;;;;;;18.58;16.67;;;;;;;;;;1480662;40;20512;-84
2021/06/08 03:06:42;;;;;;;20.75;17.42;;;;;;;;;;1481147;40;20411;-84
2021/06/08 03:07:46;;;;;;;18.60;16.60;;;;;;;;;;1485581;40;20430;-83
2021/06/08 03:08:56;;;;;;;19.98;17.25;;;;;;;;;;1485268;40;20423;-84
2021/06/08 03:10:07;;;;;;;18.48;16.58;;;;;;;;;;1485818;40;20385;-83
2021/06/08 03:11:13;;;;;;;19.35;17.27;;;;;;;;;;1487238;39;20891;-83
2021/06/08 03:12:18;;;;;;;19.25;17.27;;;;;;;;;;1482909;40;20450;-83
2021/06/08 03:13:21;;;;;;;19.85;17.85;;;;;;;;;;1481249;40;20402;-84
2021/06/08 03:14:24;;;;;;;19.15;17.15;;;;;;;;;;1487640;39;20395;-84
2021/06/08 03:15:39;;;;;;;19.48;17.48;;;;;;;;;;1483737;40;20427;-83
2021/06/08 03:16:45;;;;;;;19.75;17.65;;;;;;;;;;1484576;40;20400;-84
2021/06/08 03:17:46;;;;;;;19.30;17.05;;;;;;;;;;1485628;40;20426;-83
2021/06/08 03:18:53;;;;;;;19.10;17.10;;;;;;;;;;1485610;40;20838;-84
2021/06/08 03:19:59;;;;;;;19.85;16.95;;;;;;;;;;1486547;40;20396;-85
2021/06/08 03:21:02;;;;;;;21.38;18.48;;;;;;;;;;1482385;40;20428;-83
2021/06/08 03:22:11;;;;;;;19.23;17.27;;;;;;;;;;1486289;40;20434;-83
2021/06/08 03:23:17;;;;;;;18.20;16.25;;;;;;;;;;1487264;40;20438;-83
2021/06/08 03:24:21;;;;;;;19.38;17.30;;;;;;;;;;1487328;40;20456;-83
2021/06/08 03:25:24;;;;;;;19.48;17.40;;;;;;;;;;1487954;39;20431;-83
2021/06/08 03:26:27;;;;;;;20.37;17.00;;;;;;;;;;1485245;40;20516;-84
2021/06/08 03:27:29;;;;;;;18.33;16.42;;;;;;;;;;1484714;40;20427;-84
2021/06/08 03:28:32;;;;;;;18.65;16.75;;;;;;;;;;1489268;40;20423;-83
2021/06/08 03:29:35;;;;;;;18.85;16.95;;;;;;;;;;1488948;40;20418;-84
2021/06/08 03:30:37;;;;;;;18.80;16.80;;;;;;;;;;1485947;40;20820;-84
2021/06/08 03:31:43;;;;;;;18.27;16.38;;;;;;;;;;1484673;40;20399;-84
2021/06/08 03:32:45;;;;;;;19.48;17.48;;;;;;;;;;1478123;40;20780;-83
2021/06/08 03:33:47;;;;;;;19.30;17.27;;;;;;;;;;1481303;40;20947;-85
2021/06/08 03:34:50;;;;;;;20.42;18.38;;;;;;;;;;1482052;40;20485;-84
2021/06/08 03:35:56;;;;;;;19.88;16.70;;;;;;;;;;1479005;40;20529;-83
2021/06/08 03:37:00;;;;;;;25.30;17.42;;;;;;;;;;1485939;39;20391;-83
2021/06/08 03:38:02;;;;;;;18.40;16.40;;;;;;;;;;1487725;39;20530;-84
2021/06/08 03:39:05;;;;;;;18.67;16.30;;;;;;;;;;1489891;39;20463;-83
2021/06/08 03:40:07;;;;;;;18.65;16.77;;;;;;;;;;1481282;40;20436;-84
2021/06/08 03:41:11;;;;;;;18.42;16.45;;;;;;;;;;1473765;40;20818;-83
2021/06/08 03:42:13;;;;;;;19.80;16.60;;;;;;;;;;1477592;40;20403;-83
2021/06/08 03:43:15;;;;;;;20.58;17.70;;;;;;;;;;1485906;40;20403;-83
2021/06/08 03:44:19;;;;;;;19.42;17.40;;;;;;;;;;1487047;39;20883;-84
2021/06/08 03:45:22;;;;;;;18.67;16.52;;;;;;;;;;1486343;39;20525;-82
2021/06/08 03:46:26;;;;;;;18.60;16.63;;;;;;;;;;1482435;40;20445;-83
2021/06/08 03:47:28;;;;;;;19.92;16.60;;;;;;;;;;1482705;40;20706;-83
2021/06/08 03:48:30;;;;;;;17.17;15.38;;;;;;;;;;1484182;40;20498;-82
2021/06/08 03:49:32;;;;;;;17.55;15.85;;;;;;;;;;1482654;40;20462;-83
2021/06/08 03:50:35;;;;;;;17.77;15.48;;;;;;;;;;1480078;40;20446;-82
2021/06/08 03:51:36;;;;;;;18.40;16.23;;;;;;;;;;1477801;40;20463;-83
2021/06/08 03:52:39;;;;;;;17.90;15.90;;;;;;;;;;1485462;40;20423;-83
2021/06/08 03:53:41;;;;;;;18.13;16.27;;;;;;;;;;1484641;40;20812;-83
2021/06/08 03:54:42;;;;;;;16.80;15.20;;;;;;;;;;1483920;40;20472;-83
2021/06/08 03:55:49;;;;;;;17.42;15.45;;;;;;;;;;1482876;40;20400;-83
2021/06/08 03:56:53;;;;;;;16.95;15.25;;;;;;;;;;1484306;40;20463;-83
2021/06/08 03:57:56;;;;;;;16.75;15.13;;;;;;;;;;1479368;40;20417;-83
2021/06/08 03:58:58;;;;;;;16.92;15.15;;;;;;;;;;1479620;40;20402;-83
2021/06/08 04:00:00;;;;;;;15.88;14.27;;;;;;;;;;1481792;40;20733;-83
2021/06/08 04:01:02;;;;;;;17.33;14.75;;;;;;;;;;1478501;40;20562;-83
2021/06/08 04:02:05;;;;;;;16.40;14.73;;;;;;;;;;1480697;40;20410;-83
2021/06/08 04:03:10;;;;;;;16.73;14.57;;;;;;;;;;1486502;40;20521;-83
2021/06/08 04:04:12;;;;;;;18.55;15.23;;;;;;;;;;1487557;40;20446;-83
2021/06/08 04:05:14;;;;;;;16.63;14.90;;;;;;;;;;1485379;40;20403;-83
2021/06/08 04:06:18;;;;;;;17.90;15.13;;;;;;;;;;1485382;40;20403;-83
2021/06/08 04:07:20;;;;;;;16.40;14.70;;;;;;;;;;1486536;39;20458;-83
2021/06/08 04:08:25;;;;;;;15.75;14.15;;;;;;;;;;1483642;40;20432;-83
2021/06/08 04:09:27;;;;;;;16.08;14.38;;;;;;;;;;1482106;40;20781;-82
2021/06/08 04:10:29;;;;;;;16.85;14.18;;;;;;;;;;1486715;40;20422;-83
2021/06/08 04:11:31;;;;;;;15.68;14.02;;;;;;;;;;1483225;40;20495;-83
2021/06/08 04:12:34;;;;;;;15.90;13.98;;;;;;;;;;1481995;40;20408;-82
2021/06/08 04:13:39;;;;;;;15.10;13.60;;;;;;;;;;1478771;40;20415;-83
2021/06/08 04:14:42;;;;;;;16.23;14.43;;;;;;;;;;1483407;40;20510;-82
2021/06/08 04:15:47;;;;;;;14.70;13.20;;;;;;;;;;1488442;40;20470;-83
2021/06/08 04:16:50;;;;;;;15.10;13.57;;;;;;;;;;1485170;40;20872;-82
2021/06/08 04:17:53;;;;;;;14.68;13.27;;;;;;;;;;1482417;40;20438;-83
2021/06/08 04:18:57;;;;;;;15.18;13.68;;;;;;;;;;1489965;39;20431;-84
2021/06/08 04:19:59;;;;;;;15.32;13.77;;;;;;;;;;1489990;40;20415;-83
2021/06/08 04:21:02;;;;;;;14.93;13.43;;;;;;;;;;1487606;40;20560;-83
2021/06/08 04:22:04;;;;;;;14.55;13.05;;;;;;;;;;1483765;40;21013;-82
2021/06/08 04:23:07;;;;;;;16.30;13.32;;;;;;;;;;1484961;40;20466;-83
2021/06/08 04:24:09;;;;;;;13.90;12.55;;;;;;;;;;1486518;40;20411;-82
2021/06/08 04:25:11;;;;;;;15.85;14.25;;;;;;;;;;1482738;40;20435;-83
2021/06/08 04:26:15;;;;;;;14.20;12.90;;;;;;;;;;1481744;40;20535;-83
2021/06/08 04:27:22;;;;;;;14.35;12.82;;;;;;;;;;1485876;40;20493;-83
2021/06/08 04:28:25;;;;;;;13.75;12.45;;;;;;;;;;1489029;40;20866;-83
2021/06/08 04:29:27;;;;;;;14.13;12.82;;;;;;;;;;1491603;40;20774;-83
2021/06/08 04:30:30;;;;;;;14.00;12.68;;;;;;;;;;1491762;40;20402;-83
2021/06/08 04:31:32;;;;;;;13.15;11.75;;;;;;;;;;1490441;40;20399;-83
2021/06/08 04:32:35;;;;;;;13.73;12.23;;;;;;;;;;1492071;39;20422;-83
2021/06/08 04:33:37;;;;;;;16.60;13.00;;;;;;;;;;1492347;39;20431;-82
2021/06/08 04:34:44;;;;;;;13.80;12.40;;;;;;;;;;1489141;39;20412;-83
2021/06/08 04:35:46;;;;;;;14.30;12.48;;;;;;;;;;1484539;40;20441;-84
2021/06/08 04:36:48;;;;;;;13.40;12.00;;;;;;;;;;1482658;40;20442;-83
2021/06/08 04:37:50;;;;;;;14.07;12.35;;;;;;;;;;1484696;40;20764;-83
2021/06/08 04:38:53;;;;;;;12.48;11.32;;;;;;;;;;1483411;40;20408;-83
2021/06/08 04:39:55;;;;;;;12.38;11.30;;;;;;;;;;1478569;40;20443;-83
2021/06/08 04:40:58;;;;;;;13.73;12.32;;;;;;;;;;1474046;40;20408;-83
2021/06/08 04:42:00;;;;;;;13.70;12.35;;;;;;;;;;1479319;40;20886;-83
2021/06/08 04:43:01;;;;;;;14.00;12.00;;;;;;;;;;1486616;40;20952;-84
2021/06/08 04:44:03;;;;;;;14.82;11.35;;;;;;;;;;1486855;40;20411;-83
2021/06/08 04:45:05;;;;;;;14.27;12.15;;;;;;;;;;1486922;40;21015;-83
2021/06/08 04:46:12;;;;;;;12.88;11.65;;;;;;;;;;1478138;40;20504;-83
2021/06/08 04:47:20;;;;;;;13.65;12.30;;;;;;;;;;1480208;40;20433;-83
2021/06/08 04:48:24;;;;;;;14.43;11.80;;;;;;;;;;1485935;40;20412;-84
2021/06/08 04:49:26;;;;;;;13.60;12.27;;;;;;;;;;1485834;40;20444;-84
2021/06/08 04:50:29;;;;;;;12.02;11.00;;;;;;;;;;1483716;40;20405;-83
2021/06/08 04:51:32;;;;;;;12.63;11.15;;;;;;;;;;1487816;39;20452;-84
2021/06/08 04:52:34;;;;;;;12.00;10.85;;;;;;;;;;1486366;39;20480;-84
2021/06/08 04:53:36;;;;;;;12.50;11.20;;;;;;;;;;1486410;39;20391;-84
2021/06/08 04:54:39;;;;;;;13.15;11.88;;;;;;;;;;1486423;39;20407;-84
2021/06/08 04:55:44;;;;;;;16.00;11.10;;;;;;;;;;1486004;40;20391;-84
2021/06/08 04:56:46;;;;;;;12.18;10.98;;;;;;;;;;1486547;40;20395;-83
2021/06/08 04:57:49;;;;;;;11.68;10.48;;;;;;;;;;1485920;40;20477;-84
2021/06/08 04:58:51;;;;;;;12.48;11.38;;;;;;;;;;1487397;39;20399;-83
2021/06/08 05:00:08;;;;;;;12.60;11.07;;;;;;;;;;1482376;40;20407;-83
2021/06/08 05:01:09;;;;;;;14.38;10.88;;;;;;;;;;1478554;40;20446;-83
2021/06/08 05:02:17;;;;;;;11.57;10.57;;;;;;;;;;1483367;39;20645;-83
2021/06/08 05:03:21;;;;;;;11.85;10.52;;;;;;;;;;1489283;39;20823;-83
2021/06/08 05:04:28;;;;;;;12.57;11.27;;;;;;;;;;1486254;39;20391;-83
2021/06/08 05:05:32;;;;;;;12.07;10.88;;;;;;;;;;1481393;40;20714;-83
2021/06/08 05:06:39;;;;;;;12.00;10.90;;;;;;;;;;1477609;40;20704;-84
2021/06/08 05:07:44;;;;;;;12.20;11.00;;;;;;;;;;1478570;40;20429;-83
2021/06/08 05:08:54;;;;;;;12.27;10.98;;;;;;;;;;1485955;40;20407;-84
2021/06/08 05:09:59;;;;;;;11.82;10.80;;;;;;;;;;1485448;40;20516;-83
2021/06/08 05:11:13;;;;;;;11.52;10.23;;;;;;;;;;1479440;40;20431;-83
2021/06/08 05:12:18;;;;;;;10.65;9.65;;;;;;;;;;1482483;40;20397;-82
2021/06/08 05:13:21;;;;;;;10.75;9.85;;;;;;;;;;1485998;40;20391;-84
2021/06/08 05:14:26;;;;;;;11.25;10.18;;;;;;;;;;1488383;39;20459;-82
2021/06/08 05:15:28;;;;;;;11.20;10.10;;;;;;;;;;1483131;40;20455;-83
2021/06/08 05:16:30;;;;;;;12.40;11.20;;;;;;;;;;1478622;40;20492;-83
2021/06/08 05:17:34;;;;;;;12.77;10.32;;;;;;;;;;1480133;40;20432;-83
2021/06/08 05:18:37;;;;;;;12.00;10.80;;;;;;;;;;1484647;40;20853;-83
2021/06/08 05:19:39;;;;;;;10.90;9.65;;;;;;;;;;1486051;40;20518;-83
2021/06/08 05:20:44;;;;;;;11.10;9.90;;;;;;;;;;1486508;40;20403;-83
2021/06/08 05:21:46;;;;;;;10.00;9.10;;;;;;;;;;1481015;40;20802;-83
2021/06/08 05:22:50;;;;;;;11.82;10.00;;;;;;;;;;1481416;40;20412;-84
2021/06/08 05:23:59;;;;;;;11.55;10.07;;;;;;;;;;1481842;40;20422;-82
2021/06/08 05:25:15;;;;;;;10.32;9.32;;;;;;;;;;1479070;40;20456;-84
2021/06/08 05:26:17;;;;;;;11.10;10.10;;;;;;;;;;1481222;40;21144;-83
2021/06/08 05:27:21;;;;;;;10.95;9.95;;;;;;;;;;1486646;39;20516;-84
2021/06/08 05:28:22;;;;;;;11.20;10.02;;;;;;;;;;1483428;40;20496;-84
2021/06/08 05:29:24;;;;;;;10.88;9.85;;;;;;;;;;1477471;40;20429;-84
2021/06/08 05:30:27;;;;;;;10.73;9.65;;;;;;;;;;1481838;40;20455;-84
2021/06/08 05:31:30;;;;;;;9.73;8.82;;;;;;;;;;1485518;40;20395;-84
2021/06/08 05:32:31;;;;;;;10.38;9.38;;;;;;;;;;1481380;40;20562;-84
2021/06/08 05:33:33;;;;;;;10.50;9.23;;;;;;;;;;1480386;40;20679;-83
2021/06/08 05:34:34;;;;;;;10.27;9.15;;;;;;;;;;1479492;40;20471;-83
2021/06/08 05:35:36;;;;;;;10.85;8.95;;;;;;;;;;1478730;40;20442;-83
2021/06/08 05:36:38;;;;;;;9.85;8.95;;;;;;;;;;1477002;40;20484;-83
2021/06/08 05:37:42;;;;;;;10.07;9.18;;;;;;;;;;1485522;40;20859;-83
2021/06/08 05:38:49;;;;;;;10.00;9.18;;;;;;;;;;1486324;40;20384;-84
2021/06/08 05:39:51;;;;;;;10.30;9.23;;;;;;;;;;1486019;40;20592;-83
2021/06/08 05:40:53;;;;;;;10.00;9.05;;;;;;;;;;1485328;40;20829;-82
2021/06/08 05:41:54;;;;;;;14.93;9.38;;;;;;;;;;1486095;40;20410;-82
2021/06/08 05:42:56;;;;;;;10.30;9.32;;;;;;;;;;1480753;40;20523;-82
2021/06/08 05:43:57;;;;;;;12.02;9.10;;;;;;;;;;1477619;40;20578;-82
2021/06/08 05:44:59;;;;;;;10.43;9.57;;;;;;;;;;1486216;40;20451;-83
2021/06/08 05:46:03;;;;;;;10.57;9.55;;;;;;;;;;1485073;40;20931;-82
2021/06/08 05:47:06;;;;;;;10.50;9.60;;;;;;;;;;1483223;40;21206;-82
2021/06/08 05:48:08;;;;;;;10.25;9.32;;;;;;;;;;1486351;40;20907;-83
2021/06/08 05:49:10;;;;;;;9.73;8.77;;;;;;;;;;1482079;40;20538;-83
2021/06/08 05:50:12;;;;;;;10.07;9.18;;;;;;;;;;1480027;40;20410;-83
2021/06/08 05:51:14;;;;;;;12.48;9.43;;;;;;;;;;1478116;40;20474;-83
2021/06/08 05:52:16;;;;;;;9.75;8.95;;;;;;;;;;1484579;40;20906;-83
2021/06/08 05:53:19;;;;;;;9.57;8.55;;;;;;;;;;1476566;40;20414;-83
2021/06/08 05:54:21;;;;;;;11.05;9.02;;;;;;;;;;1473807;40;20502;-83
2021/06/08 05:55:29;;;;;;;10.40;9.30;;;;;;;;;;1483778;40;20480;-83
2021/06/08 05:56:34;;;;;;;10.45;8.77;;;;;;;;;;1485700;40;20443;-83
2021/06/08 05:57:36;;;;;;;10.27;9.18;;;;;;;;;;1485495;40;20415;-83
2021/06/08 05:58:38;;;;;;;10.55;9.57;;;;;;;;;;1486378;40;20430;-83
2021/06/08 05:59:41;;;;;;;10.25;9.32;;;;;;;;;;1484478;40;20391;-83
2021/06/08 06:00:43;;;;;;;11.60;9.77;;;;;;;;;;1482932;40;20412;-83
2021/06/08 06:01:45;;;;;;;10.40;9.30;;;;;;;;;;1481523;40;20506;-83
2021/06/08 06:02:48;;;;;;;10.15;8.95;;;;;;;;;;1484966;39;20415;-84
2021/06/08 06:03:50;;;;;;;9.75;8.88;;;;;;;;;;1490042;39;20420;-84
2021/06/08 06:04:52;;;;;;;12.63;9.65;;;;;;;;;;1476832;40;20516;-83
2021/06/08 06:05:55;;;;;;;9.05;8.25;;;;;;;;;;1476647;40;20470;-83
2021/06/08 06:06:58;;;;;;;9.30;8.40;;;;;;;;;;1481372;40;20400;-83
2021/06/08 06:08:00;;;;;;;10.63;8.85;;;;;;;;;;1477298;40;20438;-85
2021/06/08 06:09:02;;;;;;;9.80;8.88;;;;;;;;;;1482468;40;20409;-84
2021/06/08 06:10:04;;;;;;;10.10;8.48;;;;;;;;;;1485722;39;20460;-83
2021/06/08 06:11:08;;;;;;;8.57;7.78;;;;;;;;;;1483700;40;20418;-84
2021/06/08 06:12:11;;;;;;;11.65;8.40;;;;;;;;;;1478235;40;20525;-84
2021/06/08 06:13:14;;;;;;;10.30;7.72;;;;;;;;;;1483265;40;20393;-84